Terminal Aerodrome Forecast
Issued by NWS

Home | Current Version | Previous Version | Text Only | Print | Product List | Glossary On
Versions: 1 2 3 4 5 6 7 8 9 10 11 12 13 14 15 16
792
FTUS45 KABQ 231737
TAFSAF
TAF
KSAF 231737Z 2318/2418 20011KT P6SM SCT060
     FM232000 22017G27KT P6SM SCT060
     FM240200 21015KT P6SM BKN050
     FM240600 22014KT 4SM -SN OVC025
      TEMPO 2408/2412 2SM -SN OVC009
     FM241300 24010KT P6SM OVC035
     FM241600 24013KT P6SM VCSH BKN040=

USA.gov is the U.S. government's official web portal to all federal, state and local government web resources and services.